Time;durP1;ratioP1;P1;durP2;ratioP2;P2;SDS_P1;SDS_P2;PMS_P1;PMS_P2;Temp;Humidity;BMP_temperature;BMP_pressure;BME280_temperature;BME280_humidity;BME280_pressure;Samples;Min_cycle;Max_cycle;Signal;HPM_P1;HPM_P2
2022/06/30 00:01:04;;;;;;;10.20;9.10;;;22.70;99.90;;;;;;5014563;28;20275;-66
2022/06/30 00:03:29;;;;;;;9.93;9.03;;;22.70;99.90;;;;;;5015554;28;20226;-67
2022/06/30 00:05:55;;;;;;;9.13;8.27;;;22.70;99.90;;;;;;5013751;28;20176;-66
2022/06/30 00:08:21;;;;;;;8.70;7.80;;;22.80;1.00;;;;;;5011211;28;20173;-66
2022/06/30 00:10:46;;;;;;;15.73;9.30;;;22.80;99.90;;;;;;5011020;28;20193;-67
2022/06/30 00:13:12;;;;;;;10.40;9.20;;;22.80;99.90;;;;;;5010543;28;20242;-66
2022/06/30 00:15:38;;;;;;;10.53;9.57;;;22.90;99.90;;;;;;5010505;28;20215;-66
2022/06/30 00:18:04;;;;;;;10.20;9.40;;;22.90;99.90;;;;;;5015724;28;20697;-66
2022/06/30 00:20:30;;;;;;;9.83;9.03;;;22.90;99.90;;;;;;5020920;28;20207;-66
2022/06/30 00:22:56;;;;;;;10.07;9.27;;;22.90;99.90;;;;;;5029900;28;20410;-65
2022/06/30 00:25:21;;;;;;;10.90;9.80;;;22.80;99.90;;;;;;5011679;28;20174;-67
2022/06/30 00:27:47;;;;;;;9.50;8.70;;;22.70;1.00;;;;;;5028600;28;20601;-66
2022/06/30 00:30:13;;;;;;;11.40;9.03;;;22.90;99.90;;;;;;5028259;28;20291;-67
2022/06/30 00:32:38;;;;;;;10.43;9.33;;;23.00;99.90;;;;;;5010293;28;20176;-66
2022/06/30 00:35:04;;;;;;;14.07;10.50;;;22.90;99.90;;;;;;5008401;28;20203;-66
2022/06/30 00:37:30;;;;;;;11.60;10.40;;;22.70;1.00;;;;;;5009008;28;20168;-66
2022/06/30 00:39:56;;;;;;;10.13;9.33;;;22.70;1.00;;;;;;5008737;28;20192;-66
2022/06/30 00:42:22;;;;;;;10.03;9.13;;;22.90;99.90;;;;;;5009627;28;20180;-66
2022/06/30 00:44:47;;;;;;;10.40;9.30;;;23.10;99.90;;;;;;5009479;28;20287;-67
2022/06/30 00:47:13;;;;;;;10.30;9.40;;;23.00;99.90;;;;;;5008969;28;20264;-66
2022/06/30 00:49:39;;;;;;;10.93;9.83;;;22.90;99.90;;;;;;5021245;28;20200;-67
2022/06/30 00:52:10;;;;;;;10.47;9.30;;;22.60;1.00;;;;;;5029031;28;20228;-67
2022/06/30 00:54:38;;;;;;;10.40;9.50;;;22.40;1.00;;;;;;5028380;28;20511;-67
2022/06/30 00:57:05;;;;;;;10.20;9.40;;;22.30;1.00;;;;;;5027667;28;20755;-67
2022/06/30 00:59:33;;;;;;;12.07;10.37;;;22.20;1.00;;;;;;5028069;28;20522;-67
2022/06/30 01:02:01;;;;;;;11.03;9.93;;;22.10;37.90;;;;;;5028857;28;20402;-66
2022/06/30 01:04:29;;;;;;;10.47;9.53;;;22.10;99.90;;;;;;5028044;28;20402;-67
2022/06/30 01:06:57;;;;;;;12.90;10.20;;;22.10;99.90;;;;;;5028354;28;20542;-66
2022/06/30 01:14:53;;;;;;;16.30;11.30;;;21.90;99.90;;;;;;5028210;28;20413;-67
2022/06/30 01:17:20;;;;;;;11.63;10.50;;;21.90;99.90;;;;;;5027655;28;20414;-67
2022/06/30 01:19:54;;;;;;;12.37;11.27;;;21.90;99.90;;;;;;5027231;28;20500;-67
2022/06/30 01:22:20;;;;;;;10.20;9.20;;;21.90;99.90;;;;;;5028621;28;20394;-67
2022/06/30 01:24:45;;;;;;;12.10;10.87;;;21.90;99.90;;;;;;5028294;28;20465;-67
2022/06/30 01:27:11;;;;;;;11.10;9.97;;;21.90;99.90;;;;;;5028332;28;20466;-67
2022/06/30 01:29:37;;;;;;;10.73;9.73;;;22.00;98.60;;;;;;5028558;28;20250;-67
2022/06/30 01:32:04;;;;;;;10.00;8.80;;;22.10;1.00;;;;;;5014634;28;20773;-67
2022/06/30 01:34:29;;;;;;;10.20;9.40;;;22.10;1.00;;;;;;5008532;28;20418;-67
2022/06/30 01:36:55;;;;;;;11.47;10.40;;;22.00;1.00;;;;;;5016267;28;20407;-67
2022/06/30 01:39:21;;;;;;;12.10;10.57;;;21.90;1.00;;;;;;5009993;28;20246;-67
2022/06/30 01:41:46;;;;;;;11.43;10.43;;;21.90;1.00;;;;;;5012298;28;20180;-66
2022/06/30 01:44:12;;;;;;;10.53;9.50;;;21.90;1.00;;;;;;5012308;28;20246;-67
2022/06/30 01:46:48;;;;;;;10.83;9.80;;;22.00;1.00;;;;;;5012276;28;20211;-67
2022/06/30 01:49:14;;;;;;;10.07;9.13;;;22.00;1.00;;;;;;5020390;28;20167;-67
2022/06/30 01:51:41;;;;;;;11.20;9.40;;;22.00;1.00;;;;;;5031512;28;20406;-67
2022/06/30 01:54:08;;;;;;;11.23;8.67;;;22.00;1.00;;;;;;5010740;28;20437;-66
2022/06/30 01:56:35;;;;;;;9.67;8.80;;;22.00;1.00;;;;;;5022969;28;20499;-67
2022/06/30 01:59:00;;;;;;;9.60;7.57;;;22.00;1.00;;;;;;5030747;28;20421;-67
2022/06/30 02:01:26;;;;;;;11.53;9.23;;;22.00;1.00;;;;;;5031197;28;20398;-68
2022/06/30 02:03:52;;;;;;;10.67;9.77;;;21.90;1.00;;;;;;5031274;28;20191;-68
2022/06/30 02:06:17;;;;;;;11.90;9.80;;;21.80;1.00;;;;;;5030918;28;20195;-66
2022/06/30 02:08:43;;;;;;;10.53;9.37;;;21.80;1.00;;;;;;5030815;28;20176;-67
2022/06/30 02:11:09;;;;;;;10.93;9.87;;;21.80;1.00;;;;;;5030134;28;20505;-67
2022/06/30 02:13:34;;;;;;;11.00;9.90;;;21.90;1.00;;;;;;5031409;28;20195;-67
2022/06/30 02:16:00;;;;;;;10.97;9.87;;;21.90;1.00;;;;;;5031336;28;20168;-67
2022/06/30 02:18:26;;;;;;;16.07;10.10;;;21.90;1.00;;;;;;5019354;28;20176;-65
2022/06/30 02:20:52;;;;;;;12.53;9.23;;;21.90;1.00;;;;;;5010642;28;20246;-66
2022/06/30 02:23:17;;;;;;;10.10;9.20;;;21.80;1.00;;;;;;5011916;28;20266;-67
2022/06/30 02:25:43;;;;;;;9.90;9.00;;;21.90;1.00;;;;;;5010928;28;20160;-67
2022/06/30 02:28:09;;;;;;;10.73;9.83;;;21.80;1.00;;;;;;5009932;28;20193;-66
2022/06/30 02:30:35;;;;;;;10.30;9.33;;;21.80;1.00;;;;;;5011156;28;20199;-67
2022/06/30 02:33:01;;;;;;;11.70;8.80;;;21.80;1.00;;;;;;5011232;28;20656;-67
2022/06/30 02:35:27;;;;;;;9.47;8.53;;;21.70;1.00;;;;;;5011038;28;20848;-66
2022/06/30 02:37:53;;;;;;;20.97;10.40;;;21.70;1.00;;;;;;5011095;28;20414;-67
2022/06/30 02:40:20;;;;;;;16.63;9.50;;;21.60;1.00;;;;;;5010161;28;20427;-67
2022/06/30 02:42:46;;;;;;;15.40;9.60;;;21.60;1.00;;;;;;5011531;28;20180;-67
2022/06/30 02:45:12;;;;;;;10.87;9.57;;;21.60;1.00;;;;;;5011246;28;20881;-66
2022/06/30 02:47:40;;;;;;;10.00;8.83;;;21.70;1.00;;;;;;5011052;28;20703;-65
2022/06/30 02:50:08;;;;;;;11.80;9.30;;;21.70;1.00;;;;;;5026686;28;20453;-67
2022/06/30 02:52:36;;;;;;;10.60;9.60;;;21.70;1.00;;;;;;5031163;28;20718;-67
2022/06/30 02:55:03;;;;;;;12.30;9.87;;;21.70;1.00;;;;;;5013915;28;20414;-68
2022/06/30 02:57:29;;;;;;;12.73;9.97;;;21.70;1.00;;;;;;5010317;28;20877;-67
2022/06/30 02:59:55;;;;;;;12.90;9.50;;;21.60;1.00;;;;;;5010518;28;20427;-67
2022/06/30 03:02:21;;;;;;;20.33;10.13;;;21.40;1.00;;;;;;5010249;28;20468;-68
2022/06/30 03:04:47;;;;;;;11.33;10.23;;;21.40;1.00;;;;;;5009856;28;20199;-67
2022/06/30 03:07:13;;;;;;;12.87;9.47;;;21.40;16.80;;;;;;5010149;28;20200;-67
2022/06/30 03:09:38;;;;;;;11.90;9.80;;;21.30;15.80;;;;;;5009854;28;20427;-68
2022/06/30 03:12:04;;;;;;;14.87;9.83;;;21.30;5.20;;;;;;5010323;28;20919;-66
2022/06/30 03:14:30;;;;;;;12.07;9.20;;;21.40;1.00;;;;;;5010544;28;20279;-69
2022/06/30 03:16:56;;;;;;;26.30;10.73;;;21.30;1.00;;;;;;5010759;28;20408;-68
2022/06/30 03:19:22;;;;;;;15.03;8.53;;;21.40;1.00;;;;;;5018335;28;20193;-67
2022/06/30 03:21:48;;;;;;;30.23;10.47;;;21.30;1.00;;;;;;5031571;28;20180;-68
2022/06/30 03:24:13;;;;;;;14.47;10.17;;;21.20;45.50;;;;;;5030873;28;20168;-67
2022/06/30 03:26:39;;;;;;;16.27;10.90;;;21.10;99.90;;;;;;5029729;28;20279;-68
2022/06/30 03:29:05;;;;;;;18.97;10.60;;;21.10;99.90;;;;;;5029384;28;20192;-68
2022/06/30 03:31:31;;;;;;;20.60;10.13;;;21.00;99.90;;;;;;5019572;28;20629;-68
2022/06/30 03:33:57;;;;;;;19.97;12.30;;;21.00;99.90;;;;;;5010256;28;20164;-67
2022/06/30 03:36:23;;;;;;;17.67;10.77;;;20.90;1.00;;;;;;5009710;28;20400;-68
2022/06/30 03:38:49;;;;;;;11.67;10.30;;;20.80;1.00;;;;;;5009466;28;20506;-67
2022/06/30 03:41:14;;;;;;;14.30;11.37;;;20.80;1.00;;;;;;5009227;28;20881;-67
2022/06/30 03:43:40;;;;;;;18.40;11.07;;;20.80;1.00;;;;;;5010206;28;20599;-68
2022/06/30 03:46:06;;;;;;;13.40;12.00;;;20.90;1.00;;;;;;5009821;28;20184;-68
2022/06/30 03:48:31;;;;;;;11.57;10.40;;;20.90;1.00;;;;;;5013324;28;20198;-68
2022/06/30 03:50:57;;;;;;;19.80;11.37;;;21.00;1.00;;;;;;5029109;28;20187;-66
2022/06/30 03:53:23;;;;;;;12.30;10.57;;;21.00;1.00;;;;;;5027093;28;20160;-68
2022/06/30 03:55:48;;;;;;;16.00;10.80;;;21.00;1.00;;;;;;5009742;28;20205;-70
2022/06/30 03:58:14;;;;;;;25.17;12.50;;;21.00;1.00;;;;;;5008970;28;20736;-68
2022/06/30 04:00:40;;;;;;;30.23;12.83;;;21.10;1.00;;;;;;5009443;28;20221;-66
2022/06/30 04:03:05;;;;;;;22.93;12.17;;;20.90;1.00;;;;;;5009821;28;20206;-68
2022/06/30 04:05:31;;;;;;;18.50;10.73;;;21.00;1.00;;;;;;5009856;28;20206;-69
2022/06/30 04:07:57;;;;;;;14.90;11.13;;;21.20;99.90;;;;;;5009717;28;20304;-69
2022/06/30 04:10:23;;;;;;;16.93;11.70;;;21.30;99.90;;;;;;5008648;28;20303;-68
2022/06/30 04:12:49;;;;;;;33.10;13.47;;;21.40;72.90;;;;;;5009598;28;20172;-68
2022/06/30 04:15:14;;;;;;;17.40;11.73;;;21.60;1.00;;;;;;4991443;28;20275;-68
2022/06/30 04:17:40;;;;;;;12.27;11.00;;;21.70;1.00;;;;;;5007446;28;20180;-67
2022/06/30 04:20:15;;;;;;;12.03;10.57;;;21.70;1.00;;;;;;5015287;28;20259;-68
2022/06/30 04:22:51;;;;;;;27.07;12.87;;;21.80;1.00;;;;;;5002406;28;20191;-68
2022/06/30 04:25:18;;;;;;;32.20;12.57;;;22.00;1.00;;;;;;5005354;28;20996;-69
2022/06/30 04:27:46;;;;;;;31.23;12.53;;;22.10;1.00;;;;;;5001562;28;20914;-67
2022/06/30 04:30:12;;;;;;;20.30;12.53;;;22.30;1.00;;;;;;5012292;28;20918;-68
2022/06/30 04:32:38;;;;;;;20.70;13.60;;;22.30;1.00;;;;;;4990042;28;20489;-68
2022/06/30 04:35:12;;;;;;;11.80;10.70;;;22.10;1.00;;;;;;5005675;28;20415;-67
2022/06/30 04:37:38;;;;;;;19.57;12.47;;;21.80;1.00;;;;;;5005727;28;20620;-67
2022/06/30 04:42:50;;;;;;;12.63;11.57;;;22.00;1.00;;;;;;5005860;28;20838;-67
2022/06/30 04:45:16;;;;;;;14.47;12.10;;;21.90;1.00;;;;;;5005798;28;20411;-67
2022/06/30 04:47:41;;;;;;;13.00;11.33;;;22.00;1.00;;;;;;5005031;28;20947;-67
2022/06/30 04:50:08;;;;;;;21.43;10.83;;;22.10;1.00;;;;;;5004442;28;20451;-67
2022/06/30 04:52:34;;;;;;;21.17;12.50;;;22.30;1.00;;;;;;5006035;28;20180;-66
2022/06/30 04:55:00;;;;;;;24.53;11.97;;;22.50;1.00;;;;;;5004370;28;20494;-68
2022/06/30 04:57:26;;;;;;;18.67;11.40;;;22.70;1.00;;;;;;5005080;28;20926;-68
2022/06/30 04:59:52;;;;;;;15.40;11.43;;;22.90;1.00;;;;;;5005522;28;20642;-67
2022/06/30 05:02:18;;;;;;;22.80;11.47;;;23.10;1.00;;;;;;5010993;28;20230;-67
2022/06/30 05:04:43;;;;;;;14.40;10.90;;;23.10;1.00;;;;;;5007377;28;20781;-66
2022/06/30 05:07:09;;;;;;;15.17;11.77;;;23.20;1.00;;;;;;5005390;28;20219;-68
2022/06/30 05:09:35;;;;;;;14.73;10.50;;;23.30;1.00;;;;;;5004601;28;20200;-65
2022/06/30 05:12:01;;;;;;;17.00;10.30;;;23.30;1.00;;;;;;5005820;28;20419;-67
2022/06/30 05:14:27;;;;;;;27.10;12.57;;;23.20;1.00;;;;;;4991164;28;20485;-65
2022/06/30 05:16:52;;;;;;;18.80;12.90;;;23.50;1.00;;;;;;5010527;28;20279;-65
2022/06/30 05:19:18;;;;;;;14.47;11.53;;;23.00;1.00;;;;;;5014580;28;20172;-66
2022/06/30 05:21:44;;;;;;;29.00;14.00;;;22.60;1.00;;;;;;5009750;28;20940;-65
2022/06/30 05:26:54;;;;;;;14.37;12.20;;;22.30;1.00;;;;;;5009615;28;20235;-66
2022/06/30 05:29:19;;;;;;;13.53;12.23;;;22.10;1.00;;;;;;5009482;28;20817;-66
2022/06/30 05:31:45;;;;;;;14.17;12.93;;;21.90;1.00;;;;;;5010519;28;20192;-66
2022/06/30 05:34:11;;;;;;;13.07;11.47;;;22.10;1.00;;;;;;5009977;28;20176;-66
2022/06/30 05:36:36;;;;;;;21.30;13.40;;;22.10;1.00;;;;;;5011253;28;20204;-66
2022/06/30 05:39:03;;;;;;;15.27;13.30;;;21.80;1.00;;;;;;5010616;28;20225;-67
2022/06/30 05:41:28;;;;;;;12.83;11.63;;;21.60;1.00;;;;;;5003679;28;20192;-66
2022/06/30 05:43:54;;;;;;;12.90;11.70;;;22.20;1.00;;;;;;5004483;28;21343;-67
2022/06/30 05:46:20;;;;;;;13.60;12.10;;;22.60;1.00;;;;;;4997582;28;20286;-67
2022/06/30 05:48:45;;;;;;;14.17;12.87;;;22.90;1.00;;;;;;5020704;28;20960;-67
2022/06/30 05:51:11;;;;;;;16.63;12.00;;;23.10;1.00;;;;;;5015908;28;20240;-66
2022/06/30 05:53:37;;;;;;;15.30;13.80;;;23.20;1.00;;;;;;5014579;28;20184;-67
2022/06/30 05:56:03;;;;;;;18.37;14.87;;;23.60;1.00;;;;;;5026159;28;20160;-66
2022/06/30 05:58:28;;;;;;;20.80;15.30;;;24.00;1.00;;;;;;5030171;28;20935;-67
2022/06/30 06:00:54;;;;;;;28.93;24.70;;;23.80;1.00;;;;;;5011477;28;20188;-67
2022/06/30 06:03:20;;;;;;;31.30;28.07;;;23.70;1.00;;;;;;5011670;28;20334;-68
2022/06/30 06:05:45;;;;;;;32.90;29.80;;;23.90;1.00;;;;;;5008663;28;20667;-66
2022/06/30 06:08:15;;;;;;;41.53;37.63;;;23.90;1.00;;;;;;5008858;28;20195;-68
2022/06/30 06:10:40;;;;;;;36.53;33.27;;;24.00;99.90;;;;;;5008145;28;20262;-67
2022/06/30 06:13:07;;;;;;;38.03;33.00;;;24.00;99.90;;;;;;5007908;28;20411;-66
2022/06/30 06:15:33;;;;;;;34.10;30.50;;;23.80;99.90;;;;;;5008228;28;20176;-66
2022/06/30 06:17:59;;;;;;;34.20;30.90;;;23.60;99.90;;;;;;5008191;28;20427;-67
2022/06/30 06:20:25;;;;;;;29.93;26.30;;;23.80;1.00;;;;;;5006997;28;20550;-68
2022/06/30 06:22:50;;;;;;;31.93;26.30;;;24.00;99.90;;;;;;4998313;28;20177;-66
2022/06/30 06:25:16;;;;;;;21.40;17.67;;;24.40;99.90;;;;;;4987835;28;20281;-67
2022/06/30 06:27:42;;;;;;;25.97;17.50;;;24.80;99.90;;;;;;4990069;28;20638;-69
2022/06/30 06:30:10;;;;;;;20.70;16.63;;;25.20;99.90;;;;;;4990641;28;20203;-68
2022/06/30 06:32:35;;;;;;;22.73;16.33;;;25.40;99.90;;;;;;5010940;28;20172;-67
2022/06/30 06:35:02;;;;;;;24.90;18.40;;;25.60;99.90;;;;;;5013557;28;20415;-67
2022/06/30 06:37:28;;;;;;;23.17;17.53;;;25.70;99.90;;;;;;5011281;28;20180;-67
2022/06/30 06:39:54;;;;;;;25.97;17.40;;;25.50;99.90;;;;;;5010188;28;20493;-68
2022/06/30 06:42:20;;;;;;;19.73;15.80;;;25.40;99.90;;;;;;5009964;28;20183;-68
2022/06/30 06:44:47;;;;;;;27.63;18.23;;;25.20;99.90;;;;;;5010946;28;20180;-68
2022/06/30 06:47:14;;;;;;;20.97;18.77;;;25.10;99.90;;;;;;5010099;28;20206;-68
2022/06/30 06:49:40;;;;;;;24.37;21.80;;;25.20;99.90;;;;;;5010508;28;21137;-68
2022/06/30 06:52:06;;;;;;;34.07;20.87;;;25.10;99.90;;;;;;5009594;28;20415;-67
2022/06/30 06:54:32;;;;;;;34.70;22.03;;;25.50;99.90;;;;;;4998894;28;20684;-68
2022/06/30 06:56:57;;;;;;;26.07;22.17;;;25.90;99.90;;;;;;4990660;28;20423;-68
2022/06/30 06:59:23;;;;;;;23.70;20.70;;;25.80;99.90;;;;;;4990511;28;20200;-68
2022/06/30 07:01:49;;;;;;;31.63;25.10;;;26.10;99.90;;;;;;4991337;28;20173;-68
2022/06/30 07:04:14;;;;;;;33.90;25.70;;;26.00;99.90;;;;;;4991605;28;20569;-68
2022/06/30 07:06:40;;;;;;;26.10;22.27;;;25.90;99.90;;;;;;4990855;28;20239;-68
2022/06/30 07:09:06;;;;;;;33.50;26.47;;;26.30;99.90;;;;;;4990650;28;20188;-68
2022/06/30 07:11:31;;;;;;;26.57;20.47;;;26.20;99.90;;;;;;4991995;28;20578;-68
2022/06/30 07:13:57;;;;;;;27.17;23.80;;;26.20;99.90;;;;;;4991328;28;20599;-67
2022/06/30 07:16:23;;;;;;;22.93;20.53;;;25.90;99.90;;;;;;4974087;28;20323;-67
2022/06/30 07:18:48;;;;;;;22.33;18.70;;;25.80;99.90;;;;;;5012668;28;20187;-66
2022/06/30 07:21:15;;;;;;;20.30;17.27;;;26.10;99.90;;;;;;5025331;28;20247;-66
2022/06/30 07:23:42;;;;;;;17.33;15.63;;;26.30;99.90;;;;;;5030606;28;20205;-66
2022/06/30 07:26:08;;;;;;;22.80;18.97;;;26.00;99.90;;;;;;5029880;28;20406;-67
2022/06/30 07:28:34;;;;;;;24.20;19.90;;;26.00;99.90;;;;;;5028812;28;20410;-66
2022/06/30 07:31:00;;;;;;;23.37;16.77;;;25.80;99.90;;;;;;5024251;28;20661;-67
2022/06/30 07:33:25;;;;;;;17.87;16.37;;;25.80;99.90;;;;;;5010558;28;20423;-66
2022/06/30 07:35:51;;;;;;;18.83;16.97;;;25.80;99.90;;;;;;5009440;28;20169;-67
2022/06/30 07:38:17;;;;;;;17.03;14.30;;;25.80;99.90;;;;;;5009676;28;20692;-67
2022/06/30 07:40:42;;;;;;;16.90;14.70;;;26.20;99.90;;;;;;5009579;28;20556;-67
2022/06/30 07:43:08;;;;;;;17.87;13.33;;;26.30;99.90;;;;;;5009833;28;20222;-68
2022/06/30 07:45:34;;;;;;;13.73;12.23;;;25.70;99.90;;;;;;5010294;28;20222;-67
2022/06/30 07:47:59;;;;;;;15.50;13.37;;;25.50;99.90;;;;;;5017564;28;20210;-67
2022/06/30 07:50:25;;;;;;;13.50;12.20;;;25.90;99.90;;;;;;5029302;28;20183;-67
2022/06/30 07:52:52;;;;;;;14.27;12.80;;;26.30;99.90;;;;;;5030141;28;20160;-67
2022/06/30 07:55:17;;;;;;;13.00;11.63;;;26.50;99.90;;;;;;5011513;28;20590;-68
2022/06/30 07:57:46;;;;;;;12.97;11.70;;;26.50;99.90;;;;;;5009025;28;20431;-67
2022/06/30 08:00:13;;;;;;;16.63;11.40;;;26.40;99.90;;;;;;5009519;28;20275;-67
2022/06/30 08:02:39;;;;;;;12.60;11.50;;;26.40;99.90;;;;;;5010192;28;20445;-67
2022/06/30 08:05:06;;;;;;;19.00;12.37;;;26.60;99.90;;;;;;5009924;28;20875;-67
2022/06/30 08:07:33;;;;;;;12.30;11.10;;;26.40;99.90;;;;;;5009239;28;20826;-66
2022/06/30 08:09:58;;;;;;;11.33;10.23;;;26.10;99.90;;;;;;5009520;28;20459;-67
2022/06/30 08:12:24;;;;;;;12.20;10.67;;;26.20;99.90;;;;;;5009570;28;20891;-67
2022/06/30 08:14:50;;;;;;;10.93;9.60;;;26.80;99.90;;;;;;5009539;28;20164;-66
2022/06/30 08:17:16;;;;;;;15.50;11.00;;;27.30;99.90;;;;;;5011129;28;20294;-67
2022/06/30 08:19:41;;;;;;;11.70;9.57;;;27.80;99.90;;;;;;5028876;28;20223;-67
2022/06/30 08:22:08;;;;;;;18.30;9.10;;;28.20;99.90;;;;;;5029269;28;20183;-67
2022/06/30 08:24:34;;;;;;;16.07;9.40;;;27.90;99.90;;;;;;5029036;28;20230;-67
2022/06/30 08:27:02;;;;;;;8.87;8.10;;;28.00;99.90;;;;;;5028356;28;20488;-68
2022/06/30 08:29:28;;;;;;;10.77;9.20;;;27.50;99.90;;;;;;5028343;28;20434;-68
2022/06/30 08:31:54;;;;;;;8.90;8.10;;;26.60;99.90;;;;;;5015845;28;20828;-67
2022/06/30 08:34:20;;;;;;;9.00;8.10;;;26.60;99.90;;;;;;5009650;28;20431;-67
2022/06/30 08:36:45;;;;;;;11.70;9.73;;;26.70;99.90;;;;;;5008885;28;20187;-68
2022/06/30 08:42:02;;;;;;;11.63;9.23;;;26.70;99.90;;;;;;5008337;28;20250;-68
2022/06/30 08:42:03;;;;;;;10.60;8.23;;;26.60;99.90;;;;;;5008423;28;20188;-68
2022/06/30 08:44:34;;;;;;;9.27;8.37;;;27.10;99.90;;;;;;5009502;28;20485;-68
2022/06/30 08:47:00;;;;;;;9.60;8.70;;;27.20;99.90;;;;;;5009266;28;20446;-68
2022/06/30 08:49:27;;;;;;;9.90;7.40;;;27.10;99.90;;;;;;5028419;28;20438;-68
2022/06/30 08:51:57;;;;;;;9.90;7.90;;;27.00;99.90;;;;;;5028561;28;20407;-68
2022/06/30 08:54:25;;;;;;;9.47;7.40;;;27.00;99.90;;;;;;5025662;28;20414;-69
2022/06/30 08:56:53;;;;;;;9.30;8.40;;;27.40;99.90;;;;;;5012297;28;20405;-68
2022/06/30 08:59:20;;;;;;;9.70;8.77;;;27.40;99.90;;;;;;5028909;28;20406;-68
2022/06/30 09:01:47;;;;;;;15.77;8.63;;;26.80;99.90;;;;;;5029098;28;20421;-68
2022/06/30 09:04:13;;;;;;;24.43;8.70;;;26.80;99.90;;;;;;5029252;28;20552;-68
2022/06/30 09:06:43;;;;;;;10.63;7.10;;;27.30;99.90;;;;;;5027942;28;20551;-68
2022/06/30 09:09:09;;;;;;;6.70;6.07;;;27.50;99.90;;;;;;5027094;28;20398;-68
2022/06/30 09:11:49;;;;;;;8.03;6.63;;;27.60;99.90;;;;;;5028638;28;20741;-68
2022/06/30 09:14:41;;;;;;;7.47;6.00;;;27.60;99.90;;;;;;5028981;28;20451;-68
2022/06/30 09:17:18;;;;;;;9.97;5.67;;;27.70;99.90;;;;;;5027603;28;20511;-69
2022/06/30 09:19:59;;;;;;;13.60;5.00;;;27.50;99.90;;;;;;5008446;28;20426;-67
2022/06/30 09:22:29;;;;;;;16.03;7.93;;;27.50;99.90;;;;;;5031171;22;20577;-70
2022/06/30 09:24:59;;;;;;;7.27;6.23;;;27.40;99.90;;;;;;4992886;28;20399;-72
2022/06/30 09:27:27;;;;;;;11.73;7.27;;;27.40;99.90;;;;;;4991592;28;20455;-70
2022/06/30 09:30:04;;;;;;;9.10;6.73;;;27.40;99.90;;;;;;5008768;28;20768;-70
2022/06/30 09:32:50;;;;;;;9.07;7.47;;;27.40;99.90;;;;;;5009606;28;20473;-72
2022/06/30 09:35:18;;;;;;;10.60;6.60;;;27.40;99.90;;;;;;5008175;28;20416;-71
2022/06/30 09:37:44;;;;;;;10.00;6.50;;;27.60;99.90;;;;;;4990889;28;20502;-71
2022/06/30 09:40:10;;;;;;;8.93;6.93;;;27.70;99.90;;;;;;5008121;28;20498;-68
2022/06/30 09:42:38;;;;;;;12.93;7.70;;;27.40;99.90;;;;;;5009067;28;20195;-69
2022/06/30 09:45:07;;;;;;;11.57;7.60;;;27.50;99.90;;;;;;5010084;28;20739;-69
2022/06/30 09:47:33;;;;;;;7.77;6.73;;;27.60;99.90;;;;;;5010934;28;20809;-69
2022/06/30 09:50:05;;;;;;;9.03;7.20;;;27.40;99.90;;;;;;5015914;28;20438;-69
2022/06/30 09:52:32;;;;;;;12.77;6.90;;;27.50;99.90;;;;;;5014902;28;20423;-70
2022/06/30 09:55:08;;;;;;;10.97;6.20;;;27.60;99.90;;;;;;5013933;28;20407;-69
2022/06/30 09:57:42;;;;;;;17.53;7.53;;;27.70;99.90;;;;;;5014895;28;20414;-69
2022/06/30 10:00:09;;;;;;;30.77;8.33;;;27.70;99.90;;;;;;5012185;28;20498;-69
2022/06/30 10:02:41;;;;;;;20.47;7.27;;;27.70;99.90;;;;;;4998027;28;20924;-68
2022/06/30 10:05:08;;;;;;;6.93;6.30;;;27.70;99.90;;;;;;4999027;28;20819;-68
2022/06/30 10:07:35;;;;;;;10.53;8.23;;;28.00;99.90;;;;;;5005031;28;20447;-68
2022/06/30 10:10:04;;;;;;;18.53;6.07;;;28.00;99.90;;;;;;4992534;28;20408;-70
2022/06/30 10:12:30;;;;;;;7.97;7.07;;;27.70;99.90;;;;;;4992892;28;20486;-68
2022/06/30 10:14:56;;;;;;;8.27;6.07;;;27.70;99.90;;;;;;4979017;28;20457;-68
2022/06/30 10:17:24;;;;;;;12.40;7.40;;;27.80;99.90;;;;;;4992161;28;20828;-68
2022/06/30 10:19:52;;;;;;;8.33;5.90;;;27.80;99.90;;;;;;4992567;28;20179;-68
2022/06/30 10:22:19;;;;;;;6.73;6.07;;;27.90;99.90;;;;;;4992201;28;20810;-67
2022/06/30 10:24:46;;;;;;;7.80;7.00;;;27.40;99.90;;;;;;4990249;28;20411;-67
2022/06/30 10:27:13;;;;;;;6.70;6.10;;;27.20;99.90;;;;;;4991139;28;20592;-67
2022/06/30 10:29:42;;;;;;;7.13;6.33;;;27.30;99.90;;;;;;4991936;28;20459;-67
2022/06/30 10:32:29;;;;;;;10.13;6.20;;;27.20;99.90;;;;;;4992780;28;20482;-67
2022/06/30 10:35:05;;;;;;;6.27;5.50;;;27.60;99.90;;;;;;4985071;28;20404;-67
2022/06/30 10:37:42;;;;;;;7.30;5.30;;;27.60;99.90;;;;;;4991736;28;20775;-67
2022/06/30 10:40:36;;;;;;;10.83;5.90;;;27.80;99.90;;;;;;4991769;28;20442;-67
2022/06/30 10:43:02;;;;;;;7.17;5.00;;;28.10;99.90;;;;;;4991599;28;20422;-67
2022/06/30 10:45:31;;;;;;;11.20;6.07;;;28.00;99.90;;;;;;4992530;28;20408;-68
2022/06/30 10:47:58;;;;;;;7.70;5.40;;;28.00;99.90;;;;;;4999338;28;20535;-68
2022/06/30 10:50:31;;;;;;;5.63;5.20;;;28.10;99.90;;;;;;5010112;28;20426;-69
2022/06/30 10:52:57;;;;;;;6.53;5.77;;;28.00;99.90;;;;;;5003829;28;20753;-68
2022/06/30 10:55:22;;;;;;;5.67;5.17;;;27.90;99.90;;;;;;4991613;28;20415;-67
2022/06/30 10:58:07;;;;;;;8.27;5.90;;;28.10;99.90;;;;;;4994643;28;20244;-69
2022/06/30 11:00:45;;;;;;;7.63;5.40;;;28.30;99.90;;;;;;4997855;28;20172;-69
2022/06/30 11:03:34;;;;;;;23.20;5.87;;;28.20;99.90;;;;;;4998276;28;20411;-69
2022/06/30 11:06:15;;;;;;;11.47;6.90;;;28.10;99.90;;;;;;4946017;28;20492;-68
2022/06/30 11:08:47;;;;;;;7.20;5.70;;;28.20;99.90;;;;;;4990764;28;20834;-69
2022/06/30 11:11:25;;;;;;;10.20;5.40;;;28.20;99.90;;;;;;4990209;28;20428;-69
2022/06/30 11:14:11;;;;;;;11.43;5.73;;;27.90;99.90;;;;;;4991546;28;20518;-69
2022/06/30 11:16:38;;;;;;;8.30;5.70;;;27.80;99.90;;;;;;4991798;28;20395;-69
2022/06/30 11:19:14;;;;;;;9.10;6.30;;;27.90;99.90;;;;;;5006862;28;20421;-69
2022/06/30 11:21:43;;;;;;;13.53;6.20;;;28.10;99.90;;;;;;5010259;28;20457;-69
2022/06/30 11:24:11;;;;;;;13.63;6.87;;;28.40;99.90;;;;;;5010142;28;20418;-71
2022/06/30 11:29:26;;;;;;;6.90;6.23;;;28.40;99.90;;;;;;5010741;28;20810;-69
2022/06/30 11:31:58;;;;;;;12.23;6.70;;;28.20;99.90;;;;;;4998180;28;20435;-69
2022/06/30 11:34:24;;;;;;;7.50;5.80;;;27.80;99.90;;;;;;4991685;28;20422;-69
2022/06/30 11:36:50;;;;;;;17.73;6.40;;;28.00;99.90;;;;;;4989991;28;20495;-66
2022/06/30 11:39:20;;;;;;;5.93;5.23;;;28.10;99.90;;;;;;4989861;28;20181;-69
2022/06/30 11:41:55;;;;;;;10.10;5.83;;;28.30;99.90;;;;;;4990757;28;20444;-69
2022/06/30 11:44:28;;;;;;;6.30;5.70;;;28.40;99.90;;;;;;4991041;28;20502;-68
2022/06/30 11:46:58;;;;;;;10.73;5.40;;;28.40;99.90;;;;;;4990969;28;20451;-69
2022/06/30 11:49:38;;;;;;;9.43;5.50;;;28.50;99.90;;;;;;5009341;28;20564;-69
2022/06/30 11:52:29;;;;;;;17.23;6.13;;;28.40;99.90;;;;;;4992137;28;20509;-69
2022/06/30 11:55:00;;;;;;;13.57;5.67;;;28.20;99.90;;;;;;5002792;28;20459;-69
2022/06/30 11:57:27;;;;;;;7.83;5.23;;;28.10;99.90;;;;;;5006753;28;20411;-68
2022/06/30 11:59:56;;;;;;;9.70;5.90;;;28.30;99.90;;;;;;5010323;28;20451;-69
2022/06/30 12:02:22;;;;;;;9.20;4.90;;;28.40;99.90;;;;;;5010189;28;20443;-68
2022/06/30 12:04:53;;;;;;;10.80;5.07;;;28.40;99.90;;;;;;5010527;28;20411;-68
2022/06/30 12:07:21;;;;;;;6.17;5.60;;;28.70;99.90;;;;;;5009336;28;20446;-71
2022/06/30 12:09:48;;;;;;;11.47;6.10;;;28.80;99.90;;;;;;5009757;28;20609;-68
2022/06/30 12:12:17;;;;;;;8.70;5.53;;;28.70;99.90;;;;;;5009455;28;20939;-67
2022/06/30 12:14:45;;;;;;;12.07;6.63;;;28.80;99.90;;;;;;5010623;28;20715;-66
2022/06/30 12:17:13;;;;;;;9.90;5.53;;;29.00;99.90;;;;;;4990879;28;20415;-67
2022/06/30 12:19:41;;;;;;;7.50;6.90;;;29.00;99.90;;;;;;4990489;28;20883;-67
2022/06/30 12:22:08;;;;;;;5.90;5.30;;;28.80;99.90;;;;;;4989712;28;20917;-68
2022/06/30 12:24:40;;;;;;;8.90;6.03;;;28.80;99.90;;;;;;4989883;28;20989;-68
2022/06/30 12:27:06;;;;;;;6.67;5.80;;;28.70;99.90;;;;;;4989232;28;20506;-67
2022/06/30 12:29:32;;;;;;;6.70;6.00;;;28.60;99.90;;;;;;4989766;28;20408;-69
2022/06/30 12:32:10;;;;;;;7.10;6.50;;;28.50;99.90;;;;;;4990221;28;20499;-68
2022/06/30 12:34:57;;;;;;;9.00;6.00;;;28.70;99.90;;;;;;4990442;28;20316;-68
2022/06/30 12:37:36;;;;;;;7.07;6.37;;;28.80;99.90;;;;;;4989757;28;20415;-69
2022/06/30 12:40:06;;;;;;;9.40;5.73;;;28.60;99.90;;;;;;4989261;28;20411;-67
2022/06/30 12:42:50;;;;;;;8.50;5.77;;;28.60;99.90;;;;;;4989594;28;20908;-69
2022/06/30 12:45:34;;;;;;;9.63;6.13;;;28.60;99.90;;;;;;4990139;28;20431;-70
2022/06/30 12:48:01;;;;;;;6.83;6.27;;;28.60;99.90;;;;;;4997172;28;20573;-69
2022/06/30 12:50:27;;;;;;;9.23;6.03;;;28.80;99.90;;;;;;5008822;28;20406;-69
2022/06/30 12:52:52;;;;;;;5.53;4.83;;;28.80;99.90;;;;;;5007961;28;20783;-70
2022/06/30 12:55:18;;;;;;;6.07;5.47;;;28.70;99.90;;;;;;4990798;28;20173;-69